Startpagina
METAR-TAF:

METAR-TAF

Vliegvelden :

Productieplatform

Awg-1, Nederland

breedte: 53-29-30N, lengte: 5-56-30E, hoogte: 33 m

Actueel weer

Dit bericht is 22 minuten geleden gemaakt, om 05:25 UTC
Wind 14 kt uit het westnoordwesten
Temperatuur 4°C
Vochtigheid 60%
Druk 1026 hPa
Zicht 10 km of meer
Gebroken wolken op 2900 ft
Geheel bewolkt op 3200 ft

METAR: EHMA 070525Z AUTO 30014KT 9999 BKN029 OVC032 04/M03 Q1026

Tijdstip: 06:47 (05:47 UTC)


TAF: ontbreekt

Waarnemingen en weersverwachtingen van meer dan 4000 vliegvelden (METAR en TAF).

De beschikbare stations zijn de gele en rode punten op de kaart.

Ga met uw muis naar het station om de naam te zien.

Klik dan om waarnemingen en weersverwachtingen te zien.

kaart wijzigen: klik op de groene knoppen met een zwart kruis om in te zoomen, op de groene knop met een streepje om uit te zoomen of op de groene pijlen voor aangrenzende kaarten.


METAR-TAF: